createdAt,value
2019-05-28T00:00:25.958Z,7.47
2019-05-28T00:02:53.827Z,7.40
2019-05-28T00:05:21.353Z,7.20
2019-05-28T00:07:48.931Z,7.85
2019-05-28T00:10:16.723Z,7.50
2019-05-28T00:12:44.286Z,7.12
2019-05-28T00:15:11.869Z,7.80
2019-05-28T00:17:39.420Z,7.53
2019-05-28T00:20:07.247Z,8.00
2019-05-28T00:22:35.121Z,7.85
2019-05-28T00:25:02.776Z,7.75
2019-05-28T00:27:30.511Z,7.72
2019-05-28T00:29:58.034Z,7.37
2019-05-28T00:32:25.585Z,7.78
2019-05-28T00:34:53.151Z,9.10
2019-05-28T00:37:20.708Z,9.33
2019-05-28T00:39:48.237Z,8.75
2019-05-28T00:42:15.802Z,8.95
2019-05-28T00:44:43.361Z,8.98
2019-05-28T00:47:11.197Z,8.78
2019-05-28T00:49:39.180Z,8.95
2019-05-28T00:52:06.794Z,9.28
2019-05-28T00:54:34.375Z,10.23
2019-05-28T00:57:02.334Z,10.35
2019-05-28T00:59:30.557Z,9.98
2019-05-28T01:01:58.096Z,10.38
2019-05-28T01:04:25.620Z,10.45
2019-05-28T01:06:59.733Z,9.60
2019-05-28T01:09:27.345Z,9.88
2019-05-28T01:11:54.895Z,9.68
2019-05-28T01:14:22.733Z,10.95
2019-05-28T01:16:50.576Z,10.85
2019-05-28T01:19:18.104Z,10.78
2019-05-28T01:21:45.730Z,11.45
2019-05-28T01:24:13.505Z,11.93
2019-05-28T01:26:41.017Z,11.75
2019-05-28T01:29:08.769Z,12.93
2019-05-28T01:31:36.449Z,13.83
2019-05-28T01:34:04.127Z,13.55
2019-05-28T01:36:31.845Z,14.35
2019-05-28T01:38:59.416Z,14.80
2019-05-28T01:41:27.159Z,15.45
2019-05-28T01:43:54.876Z,15.88
2019-05-28T01:46:22.454Z,15.45
2019-05-28T01:48:50.007Z,17.30
2019-05-28T01:51:17.572Z,16.70
2019-05-28T01:53:45.248Z,15.80
2019-05-28T01:56:12.781Z,15.10
2019-05-28T01:58:40.367Z,14.85
2019-05-28T02:01:12.937Z,16.32
2019-05-28T02:03:37.618Z,16.25
2019-05-28T02:06:05.332Z,15.35
2019-05-28T02:08:32.855Z,15.18
2019-05-28T02:11:00.386Z,14.38
2019-05-28T02:13:27.961Z,14.80
2019-05-28T02:15:55.567Z,15.10
2019-05-28T02:18:23.075Z,15.00
2019-05-28T02:20:50.662Z,15.05
2019-05-28T02:23:18.615Z,16.27
2019-05-28T02:25:46.199Z,16.32
2019-05-28T02:28:13.831Z,15.35
2019-05-28T02:30:42.458Z,15.63
2019-05-28T02:33:10.080Z,16.20
2019-05-28T02:35:37.676Z,16.60
2019-05-28T02:38:05.240Z,15.63
2019-05-28T02:40:33.181Z,15.95
2019-05-28T02:43:00.790Z,15.93
2019-05-28T02:45:28.310Z,16.45
2019-05-28T02:47:55.855Z,16.23
2019-05-28T02:50:50.410Z,18.23
2019-05-28T02:53:17.941Z,17.77
2019-05-28T02:55:46.269Z,18.25
2019-05-28T02:58:14.951Z,16.35
2019-05-28T03:00:43.742Z,16.60
2019-05-28T03:03:13.378Z,16.90
2019-05-28T03:05:42.208Z,17.45
2019-05-28T03:08:11.371Z,17.70
2019-05-28T03:11:01.191Z,18.10
2019-05-28T03:13:08.412Z,17.98
2019-05-28T03:15:39.466Z,17.92
2019-05-28T03:18:09.555Z,19.57
2019-05-28T03:20:38.863Z,18.77
2019-05-28T03:23:08.346Z,20.43
2019-05-28T03:25:38.759Z,19.20
2019-05-28T03:28:06.447Z,19.30
2019-05-28T03:30:33.998Z,19.02
2019-05-28T03:33:01.899Z,19.57
2019-05-28T03:35:29.457Z,19.90
2019-05-28T03:37:57.706Z,19.20
2019-05-28T03:40:39.937Z,20.25
2019-05-28T03:43:07.556Z,19.67
2019-05-28T03:45:35.120Z,21.23
2019-05-28T03:48:02.643Z,19.62
2019-05-28T03:50:30.209Z,19.80
2019-05-28T03:52:57.815Z,20.72
2019-05-28T03:55:25.364Z,21.10
2019-05-28T03:57:52.904Z,21.30
2019-05-28T04:00:20.535Z,22.37
2019-05-28T04:02:48.075Z,21.60
2019-05-28T04:05:15.587Z,23.25
2019-05-28T04:07:43.151Z,22.77
2019-05-28T04:10:10.844Z,22.52
2019-05-28T04:12:38.411Z,24.72
2019-05-28T04:15:06.399Z,23.50
2019-05-28T04:17:33.967Z,25.15
2019-05-28T04:20:01.504Z,24.92
2019-05-28T04:22:29.022Z,24.87
2019-05-28T04:24:56.490Z,25.15
2019-05-28T04:27:23.968Z,25.05
2019-05-28T04:29:51.659Z,25.35
2019-05-28T04:32:19.164Z,26.97
2019-05-28T04:34:46.646Z,26.23
2019-05-28T04:37:14.155Z,24.92
2019-05-28T04:39:41.688Z,26.20
2019-05-28T04:42:09.143Z,28.10
2019-05-28T04:44:36.739Z,26.00
2019-05-28T04:47:08.302Z,26.40
2019-05-28T04:49:33.887Z,26.65
2019-05-28T04:52:01.353Z,27.00
2019-05-28T04:54:28.844Z,24.72
2019-05-28T04:56:56.342Z,29.45
2019-05-28T04:59:23.822Z,28.15
2019-05-28T05:01:51.345Z,27.75
2019-05-28T05:04:19.132Z,26.27
2019-05-28T05:06:46.657Z,28.17
2019-05-28T05:09:14.215Z,27.17
2019-05-28T05:11:41.683Z,28.23
2019-05-28T05:14:09.217Z,29.07
2019-05-28T05:16:37.043Z,27.98
2019-05-28T05:19:04.600Z,27.10
2019-05-28T05:21:35.511Z,27.85
2019-05-28T05:24:01.398Z,27.58
2019-05-28T05:26:29.195Z,26.20
2019-05-28T05:28:56.709Z,27.42
2019-05-28T05:31:24.833Z,28.20
2019-05-28T05:33:52.776Z,28.10
2019-05-28T05:36:20.633Z,26.42
2019-05-28T05:38:48.126Z,27.40
2019-05-28T05:41:15.663Z,25.40
2019-05-28T05:43:43.265Z,27.10
2019-05-28T05:46:11.161Z,27.55
2019-05-28T05:48:39.063Z,29.02
2019-05-28T05:51:07.422Z,29.15
2019-05-28T05:53:35.741Z,28.90
2019-05-28T05:56:03.313Z,29.55
2019-05-28T05:58:31.629Z,28.07
2019-05-28T06:00:59.535Z,28.20
2019-05-28T06:03:39.907Z,28.10
2019-05-28T06:05:56.874Z,27.37
2019-05-28T06:08:24.813Z,27.42
2019-05-28T06:10:52.805Z,27.22
2019-05-28T06:13:21.437Z,26.60
2019-05-28T06:15:49.355Z,25.43
2019-05-28T06:18:17.346Z,24.50
2019-05-28T06:20:46.359Z,24.52
2019-05-28T06:23:14.354Z,24.12
2019-05-28T06:25:41.951Z,23.12
2019-05-28T06:28:10.798Z,23.32
2019-05-28T06:30:38.752Z,24.27
2019-05-28T06:33:06.266Z,23.87
2019-05-28T06:35:33.955Z,24.77
2019-05-28T06:38:01.583Z,24.52
2019-05-28T06:40:29.803Z,24.40
2019-05-28T06:42:57.844Z,24.60
2019-05-28T06:45:25.781Z,25.10
2019-05-28T06:47:53.829Z,25.65
2019-05-28T06:50:21.887Z,26.35
2019-05-28T06:52:50.010Z,24.85
2019-05-28T06:55:17.575Z,24.90
2019-05-28T06:57:45.075Z,24.63
2019-05-28T07:00:14.529Z,23.50
2019-05-28T07:02:42.168Z,23.80
2019-05-28T07:05:09.760Z,23.87
2019-05-28T07:07:37.252Z,23.85
2019-05-28T07:10:04.987Z,23.98
2019-05-28T07:12:32.534Z,23.05
2019-05-28T07:15:00.160Z,24.35
2019-05-28T07:17:27.723Z,24.60
2019-05-28T07:19:55.296Z,22.80
2019-05-28T07:22:22.797Z,22.17
2019-05-28T07:24:50.364Z,21.80
2019-05-28T07:27:17.881Z,21.87
2019-05-28T07:29:45.404Z,23.00
2019-05-28T07:32:12.893Z,22.50
2019-05-28T07:34:40.418Z,21.37
2019-05-28T07:37:07.927Z,22.48
2019-05-28T07:39:35.440Z,20.65
2019-05-28T07:42:03.354Z,22.27
2019-05-28T07:44:31.304Z,22.58
2019-05-28T07:46:58.833Z,23.95
2019-05-28T07:49:26.340Z,23.10
2019-05-28T07:51:53.862Z,23.02
2019-05-28T07:54:21.367Z,23.25
2019-05-28T07:56:48.933Z,22.95
2019-05-28T07:59:16.410Z,22.95
2019-05-28T08:01:43.940Z,21.80
2019-05-28T08:04:11.544Z,19.62
2019-05-28T08:06:53.835Z,20.32
2019-05-28T08:09:08.567Z,20.02
2019-05-28T08:11:36.117Z,20.48
2019-05-28T08:14:03.966Z,19.25
2019-05-28T08:16:31.942Z,19.62
2019-05-28T08:18:59.434Z,19.85
2019-05-28T08:21:27.123Z,19.82
2019-05-28T08:23:54.677Z,19.45
2019-05-28T08:26:22.204Z,19.30
2019-05-28T08:28:49.719Z,18.48
2019-05-28T08:31:20.969Z,17.70
2019-05-28T08:33:46.699Z,17.73
2019-05-28T08:36:14.216Z,18.35
2019-05-28T08:38:41.715Z,18.32
2019-05-28T08:41:09.281Z,16.90
2019-05-28T08:43:36.787Z,19.25
2019-05-28T08:46:04.298Z,17.98
2019-05-28T08:48:31.831Z,19.30
2019-05-28T08:50:59.610Z,19.20
2019-05-28T08:53:27.218Z,19.60
2019-05-28T08:55:54.693Z,19.77
2019-05-28T08:58:22.209Z,19.45
2019-05-28T09:00:49.724Z,19.05
2019-05-28T09:03:17.230Z,18.60
2019-05-28T09:05:44.723Z,18.82
2019-05-28T09:08:12.318Z,18.30
2019-05-28T09:10:39.828Z,17.55
2019-05-28T09:13:07.319Z,17.32
2019-05-28T09:15:35.167Z,16.52
2019-05-28T09:18:03.207Z,16.90
2019-05-28T09:20:30.904Z,16.02
2019-05-28T09:22:58.488Z,18.00
2019-05-28T09:25:26.517Z,16.27
2019-05-28T09:27:54.060Z,16.62
2019-05-28T09:30:21.771Z,14.98
2019-05-28T09:32:49.495Z,13.65
2019-05-28T09:35:17.414Z,10.28
2019-05-28T09:37:44.931Z,8.50
2019-05-28T09:40:12.456Z,8.45
2019-05-28T09:42:39.964Z,6.12
2019-05-28T09:45:21.911Z,7.45
2019-05-28T09:47:37.688Z,6.95
2019-05-28T09:50:05.531Z,6.87
2019-05-28T09:52:33.054Z,7.83
2019-05-28T09:55:00.642Z,7.40
2019-05-28T09:57:28.138Z,7.62
2019-05-28T09:59:55.686Z,7.03
2019-05-28T10:02:23.268Z,5.62
2019-05-28T10:04:51.086Z,5.72
2019-05-28T10:07:19.169Z,5.92
2019-05-28T10:09:46.680Z,4.75
2019-05-28T10:12:14.209Z,4.78
2019-05-28T10:14:44.296Z,4.30
2019-05-28T10:17:11.084Z,4.17
2019-05-28T10:19:38.594Z,4.37
2019-05-28T10:22:06.162Z,4.28
2019-05-28T10:24:33.665Z,3.85
2019-05-28T10:27:01.242Z,4.08
2019-05-28T10:29:28.855Z,3.98
2019-05-28T10:31:56.386Z,3.50
2019-05-28T10:34:23.966Z,3.85
2019-05-28T10:36:51.628Z,3.80
2019-05-28T10:39:19.175Z,4.78
2019-05-28T10:41:46.748Z,4.12
2019-05-28T10:44:14.380Z,4.28
2019-05-28T10:46:41.890Z,4.20
2019-05-28T10:49:09.392Z,4.67
2019-05-28T10:51:36.964Z,3.42
2019-05-28T10:54:06.239Z,3.67
2019-05-28T10:56:33.800Z,4.10
2019-05-28T10:59:01.321Z,3.30
2019-05-28T11:01:28.858Z,3.10
2019-05-28T11:03:56.360Z,3.17
2019-05-28T11:06:23.839Z,2.75
2019-05-28T11:08:51.402Z,3.33
2019-05-28T11:11:19.196Z,3.40
2019-05-28T11:13:52.894Z,3.30
2019-05-28T11:16:16.139Z,4.20
2019-05-28T11:18:43.629Z,5.22
2019-05-28T11:21:11.604Z,6.17
2019-05-28T11:23:39.117Z,4.90
2019-05-28T11:26:06.659Z,5.65
2019-05-28T11:28:34.666Z,4.87
2019-05-28T11:31:02.306Z,4.97
2019-05-28T11:33:29.841Z,4.03
2019-05-28T11:35:57.321Z,4.70
2019-05-28T11:38:24.898Z,4.47
2019-05-28T11:40:52.501Z,3.10
2019-05-28T11:43:20.022Z,2.87
2019-05-28T11:45:47.533Z,3.70
2019-05-28T11:48:15.229Z,4.67
2019-05-28T11:50:42.766Z,4.80
2019-05-28T11:53:10.330Z,3.58
2019-05-28T11:55:37.830Z,3.60
2019-05-28T11:58:05.408Z,2.92
2019-05-28T12:00:33.519Z,2.80
2019-05-28T12:03:01.022Z,2.25
2019-05-28T12:05:28.674Z,2.30
2019-05-28T12:07:56.260Z,2.20
2019-05-28T12:10:24.452Z,1.90
2019-05-28T12:12:51.948Z,1.80
2019-05-28T12:15:20.075Z,1.98
2019-05-28T12:17:47.637Z,1.92
2019-05-28T12:20:17.951Z,2.60
2019-05-28T12:22:45.654Z,3.08
2019-05-28T12:25:13.889Z,2.80
2019-05-28T12:27:41.440Z,2.30
2019-05-28T12:30:09.791Z,2.60
2019-05-28T12:32:37.494Z,2.40
2019-05-28T12:35:06.436Z,2.50
2019-05-28T12:37:47.368Z,2.83
2019-05-28T12:40:04.268Z,2.80
2019-05-28T12:42:31.946Z,3.00
2019-05-28T12:45:09.287Z,2.52
2019-05-28T12:47:29.248Z,3.20
2019-05-28T12:50:14.444Z,3.10
2019-05-28T12:52:26.138Z,3.05
2019-05-28T12:54:53.711Z,2.75
2019-05-28T12:57:21.247Z,2.70
2019-05-28T12:59:49.174Z,3.10
2019-05-28T13:02:17.545Z,3.67
2019-05-28T13:04:45.170Z,2.90
2019-05-28T13:07:12.910Z,2.70
2019-05-28T13:09:40.444Z,2.80
2019-05-28T13:12:08.134Z,2.58
2019-05-28T13:14:35.995Z,2.67
2019-05-28T13:17:03.573Z,2.42
2019-05-28T13:19:31.169Z,2.55
2019-05-28T13:21:58.829Z,3.02
2019-05-28T13:24:26.724Z,3.00
2019-05-28T13:26:54.298Z,2.65
2019-05-28T13:29:24.018Z,3.08
2019-05-28T13:31:52.177Z,3.25
2019-05-28T13:34:19.686Z,3.02
2019-05-28T13:36:47.227Z,2.77
2019-05-28T13:39:14.797Z,3.27
2019-05-28T13:41:43.222Z,3.37
2019-05-28T13:44:10.793Z,3.50
2019-05-28T13:46:38.427Z,3.60
2019-05-28T13:49:06.115Z,3.27
2019-05-28T13:51:33.687Z,2.85
2019-05-28T13:54:01.785Z,3.15
2019-05-28T13:56:29.296Z,3.55
2019-05-28T13:58:57.396Z,3.90
2019-05-28T14:01:25.878Z,3.62
2019-05-28T14:03:53.568Z,4.28
2019-05-28T14:06:21.211Z,3.12
2019-05-28T14:08:48.728Z,3.60
2019-05-28T14:11:16.781Z,3.42
2019-05-28T14:13:44.347Z,2.92
2019-05-28T14:16:11.922Z,3.20
2019-05-28T14:18:39.435Z,3.35
2019-05-28T14:21:06.994Z,2.40
2019-05-28T14:23:34.559Z,2.10
2019-05-28T14:26:02.148Z,2.15
2019-05-28T14:28:29.698Z,1.10
2019-05-28T14:31:00.362Z,1.10
2019-05-28T14:33:26.875Z,1.10
2019-05-28T14:35:54.473Z,1.07
2019-05-28T14:38:21.969Z,0.98
2019-05-28T14:40:49.537Z,0.80
2019-05-28T14:43:17.097Z,0.90
2019-05-28T14:45:44.734Z,0.95
2019-05-28T14:48:12.244Z,0.80
2019-05-28T14:50:39.739Z,1.10
2019-05-28T14:53:07.227Z,1.20
2019-05-28T14:55:34.778Z,1.40
2019-05-28T14:58:05.336Z,2.00
2019-05-28T15:00:32.112Z,1.57
2019-05-28T15:02:59.924Z,1.20
2019-05-28T15:05:27.402Z,1.35
2019-05-28T15:07:54.884Z,1.57
2019-05-28T15:10:22.882Z,2.70
2019-05-28T15:12:50.443Z,1.20
2019-05-28T15:15:34.429Z,1.70
2019-05-28T15:17:47.495Z,1.57
2019-05-28T15:20:15.516Z,1.55
2019-05-28T15:22:43.040Z,1.40
2019-05-28T15:25:11.328Z,1.90
2019-05-28T15:27:38.798Z,1.50
2019-05-28T15:30:07.015Z,1.32
2019-05-28T15:32:34.547Z,1.20
2019-05-28T15:35:02.457Z,1.60
2019-05-28T15:37:29.983Z,1.30
2019-05-28T15:39:57.534Z,1.65
2019-05-28T15:42:25.053Z,1.15
2019-05-28T15:44:52.590Z,1.30
2019-05-28T15:47:20.151Z,1.25
2019-05-28T15:49:47.650Z,1.37
2019-05-28T15:52:15.701Z,1.42
2019-05-28T15:54:43.280Z,1.47
2019-05-28T15:57:10.802Z,1.40
2019-05-28T15:59:38.397Z,1.30
2019-05-28T16:02:05.969Z,1.10
2019-05-28T16:04:33.613Z,1.10
2019-05-28T16:07:01.628Z,1.15
2019-05-28T16:09:29.283Z,1.20
2019-05-28T16:11:57.022Z,1.40
2019-05-28T16:14:24.578Z,1.10
2019-05-28T16:16:52.109Z,1.22
2019-05-28T16:19:19.682Z,1.20
2019-05-28T16:21:47.180Z,1.27
2019-05-28T16:24:14.728Z,1.32
2019-05-28T16:26:42.312Z,1.40
2019-05-28T16:29:09.919Z,1.10
2019-05-28T16:31:37.613Z,1.50
2019-05-28T16:34:05.167Z,1.32
2019-05-28T16:36:32.763Z,1.80
2019-05-28T16:39:00.288Z,1.57
2019-05-28T16:41:28.878Z,2.40
2019-05-28T16:43:56.413Z,1.60
2019-05-28T16:46:23.999Z,1.25
2019-05-28T16:48:51.560Z,1.10
2019-05-28T16:51:19.136Z,1.60
2019-05-28T16:53:46.675Z,1.22
2019-05-28T16:56:14.382Z,1.30
2019-05-28T16:58:41.864Z,1.40
2019-05-28T17:01:21.688Z,3.10
2019-05-28T17:03:38.663Z,2.20
2019-05-28T17:06:06.154Z,2.40
2019-05-28T17:08:34.144Z,2.25
2019-05-28T17:11:01.639Z,3.20
2019-05-28T17:13:29.129Z,3.12
2019-05-28T17:15:56.663Z,2.80
2019-05-28T17:18:24.180Z,2.62
2019-05-28T17:20:51.762Z,3.20
2019-05-28T17:23:19.244Z,3.25
2019-05-28T17:25:46.774Z,3.83
2019-05-28T17:28:14.363Z,3.75
2019-05-28T17:30:42.274Z,3.30
2019-05-28T17:33:09.791Z,2.70
2019-05-28T17:35:37.306Z,2.42
2019-05-28T17:38:04.841Z,2.40
2019-05-28T17:40:47.516Z,2.70
2019-05-28T17:43:02.504Z,1.77
2019-05-28T17:45:30.023Z,2.55
2019-05-28T17:47:57.527Z,2.40
2019-05-28T17:50:25.552Z,2.65
2019-05-28T17:52:53.042Z,2.20
2019-05-28T17:55:20.678Z,2.00
2019-05-28T17:57:48.400Z,2.12
2019-05-28T18:00:15.988Z,2.60
2019-05-28T18:02:43.455Z,2.40
2019-05-28T18:05:12.258Z,2.50
2019-05-28T18:07:39.782Z,2.17
2019-05-28T18:10:07.430Z,2.45
2019-05-28T18:12:35.009Z,2.33
2019-05-28T18:15:02.505Z,2.35
2019-05-28T18:17:30.065Z,2.58
2019-05-28T18:19:57.621Z,2.00
2019-05-28T18:22:25.132Z,2.50
2019-05-28T18:24:52.639Z,2.95
2019-05-28T18:27:20.170Z,2.37
2019-05-28T18:29:47.662Z,2.52
2019-05-28T18:32:15.243Z,3.30
2019-05-28T18:34:42.765Z,2.80
2019-05-28T18:37:10.246Z,2.35
2019-05-28T18:39:37.760Z,2.42
2019-05-28T18:42:05.277Z,2.50
2019-05-28T18:44:33.202Z,2.87
2019-05-28T18:47:01.099Z,2.62
2019-05-28T18:49:28.595Z,2.83
2019-05-28T18:51:56.125Z,2.92
2019-05-28T18:54:23.591Z,3.55
2019-05-28T18:56:51.096Z,2.80
2019-05-28T18:59:18.633Z,3.25
2019-05-28T19:01:46.096Z,3.67
2019-05-28T19:04:13.916Z,3.47
2019-05-28T19:06:41.453Z,3.58
2019-05-28T19:09:11.313Z,3.20
2019-05-28T19:11:38.518Z,3.42
2019-05-28T19:14:06.102Z,3.92
2019-05-28T19:16:33.612Z,3.80
2019-05-28T19:19:02.129Z,3.85
2019-05-28T19:21:29.668Z,4.40
2019-05-28T19:23:57.499Z,4.08
2019-05-28T19:26:25.007Z,3.90
2019-05-28T19:28:52.641Z,4.33
2019-05-28T19:31:20.230Z,4.30
2019-05-28T19:33:48.059Z,4.60
2019-05-28T19:36:17.010Z,4.83
2019-05-28T19:38:46.043Z,4.90
2019-05-28T19:41:14.082Z,5.15
2019-05-28T19:43:41.855Z,5.67
2019-05-28T19:46:09.323Z,7.85
2019-05-28T19:48:37.091Z,7.55
2019-05-28T19:51:05.017Z,8.20
2019-05-28T19:53:32.533Z,8.75
2019-05-28T19:56:00.010Z,6.97
2019-05-28T19:58:27.489Z,7.20
2019-05-28T20:00:54.983Z,7.58
2019-05-28T20:03:22.436Z,8.45
2019-05-28T20:05:49.913Z,8.55
2019-05-28T20:08:17.668Z,8.43
2019-05-28T20:10:45.142Z,7.87
2019-05-28T20:13:12.927Z,8.60
2019-05-28T20:15:40.423Z,8.83
2019-05-28T20:18:07.899Z,8.93
2019-05-28T20:20:35.380Z,7.97
2019-05-28T20:23:02.812Z,7.37
2019-05-28T20:25:30.300Z,8.30
2019-05-28T20:27:57.793Z,8.45
2019-05-28T20:30:25.398Z,9.03
2019-05-28T20:32:55.099Z,8.68
2019-05-28T20:35:22.412Z,8.43
2019-05-28T20:37:49.903Z,8.57
2019-05-28T20:40:18.611Z,9.03
2019-05-28T20:42:46.192Z,8.73
2019-05-28T20:45:14.870Z,9.73
2019-05-28T20:47:42.586Z,8.90
2019-05-28T20:50:11.734Z,9.68
2019-05-28T20:52:39.609Z,10.07
2019-05-28T20:55:07.652Z,9.25
2019-05-28T20:57:35.171Z,9.55
2019-05-28T21:00:03.112Z,9.47
2019-05-28T21:02:30.660Z,9.53
2019-05-28T21:04:58.909Z,8.98
2019-05-28T21:07:26.494Z,9.88
2019-05-28T21:09:54.568Z,10.10
2019-05-28T21:12:22.155Z,10.18
2019-05-28T21:14:50.928Z,10.40
2019-05-28T21:17:18.648Z,10.55
2019-05-28T21:19:46.411Z,9.85
2019-05-28T21:22:26.091Z,10.03
2019-05-28T21:24:43.613Z,10.10
2019-05-28T21:27:11.101Z,10.30
2019-05-28T21:29:38.600Z,10.57
2019-05-28T21:32:08.496Z,10.68
2019-05-28T21:34:36.256Z,10.85
2019-05-28T21:37:06.604Z,9.70
2019-05-28T21:39:45.443Z,10.93
2019-05-28T21:42:23.401Z,11.25
2019-05-28T21:44:51.933Z,10.05
2019-05-28T21:47:23.149Z,11.05
2019-05-28T21:49:59.417Z,10.65
2019-05-28T21:52:28.217Z,10.82
2019-05-28T21:54:57.090Z,12.57
2019-05-28T21:57:24.635Z,11.38
2019-05-28T21:59:52.107Z,11.77
2019-05-28T22:02:19.991Z,12.63
2019-05-28T22:04:47.509Z,11.73
2019-05-28T22:07:14.995Z,12.60
2019-05-28T22:09:42.475Z,13.25
2019-05-28T22:12:10.377Z,13.22
2019-05-28T22:14:38.038Z,14.50
2019-05-28T22:17:05.799Z,12.93
2019-05-28T22:19:33.274Z,11.55
2019-05-28T22:22:00.804Z,10.82
2019-05-28T22:24:28.234Z,10.82
2019-05-28T22:26:56.347Z,10.60
2019-05-28T22:29:23.817Z,9.95
2019-05-28T22:31:51.599Z,9.70
2019-05-28T22:34:19.106Z,10.53
2019-05-28T22:36:46.567Z,11.33
2019-05-28T22:39:14.378Z,11.00
2019-05-28T22:41:41.871Z,10.53
2019-05-28T22:44:09.665Z,10.30
2019-05-28T22:46:37.135Z,9.57
2019-05-28T22:49:05.376Z,10.63
2019-05-28T22:51:32.960Z,10.37
2019-05-28T22:54:01.886Z,11.13
2019-05-28T22:56:29.381Z,10.72
2019-05-28T22:58:56.824Z,12.23
2019-05-28T23:01:24.760Z,9.93
2019-05-28T23:03:52.269Z,10.40
2019-05-28T23:06:19.847Z,9.83
2019-05-28T23:08:47.327Z,10.03
2019-05-28T23:11:14.749Z,8.77
2019-05-28T23:13:46.894Z,9.80
2019-05-28T23:16:12.434Z,9.15
2019-05-28T23:18:39.896Z,8.95
2019-05-28T23:21:07.444Z,8.05
2019-05-28T23:23:34.903Z,8.38
2019-05-28T23:26:03.212Z,8.23
2019-05-28T23:28:30.713Z,8.75
2019-05-28T23:30:58.503Z,8.30
2019-05-28T23:33:26.267Z,7.43
2019-05-28T23:35:53.708Z,8.40
2019-05-28T23:38:21.216Z,7.65
2019-05-28T23:40:48.727Z,7.90
2019-05-28T23:43:16.219Z,8.10
2019-05-28T23:45:43.679Z,7.87
2019-05-28T23:48:14.962Z,8.33
2019-05-28T23:50:40.746Z,7.30
2019-05-28T23:53:08.201Z,8.17
2019-05-28T23:55:35.668Z,7.53
2019-05-28T23:58:03.190Z,8.13
